Puerto Madryn, Argentina
Current Conditions -  °F | °C
As of 6:00 PM on Tuesday 27 Jan 2015 (Local Time) from SAVC Reporting Station
Scattered Clouds Scattered Clouds  
Wind Chill: 73°   Ceiling: Unl
Heat Index: 73°   Visibility: 6mi
Dew Point: 36°   Wind: 12mph
Humidity: 25%   Direction: 250°WSW
Pressure: 29.71"   Gusts: 23mph
Location:  42.77°S, 65.05°W
Report Text: SAVC 272100Z 25010G20KT 180V290 9999SCT035 23/02 Q1006
Loading
Personal Weather Stations






























Interactive Weather Map New forecast layout! Learn more

10-Day Weather Forecast

Advertisements
Track Severe Weather on mobile